sensor_id;sensor_type;location;lat;lon;timestamp;P1;durP1;ratioP1;P2;durP2;ratioP2
55589;SDS011;41452;42.780;23.116;2023-04-01T00:00:33;7.05;;;2.80;;
55589;SDS011;41452;42.780;23.116;2023-04-01T00:02:58;5.65;;;2.20;;
55589;SDS011;41452;42.780;23.116;2023-04-01T00:05:23;6.60;;;2.25;;
55589;SDS011;41452;42.780;23.116;2023-04-01T00:07:51;7.93;;;2.35;;
55589;SDS011;41452;42.780;23.116;2023-04-01T00:10:17;4.68;;;2.30;;
55589;SDS011;41452;42.780;23.116;2023-04-01T00:12:43;7.70;;;2.70;;
55589;SDS011;41452;42.780;23.116;2023-04-01T00:15:10;7.57;;;3.00;;
55589;SDS011;41452;42.780;23.116;2023-04-01T00:17:36;5.15;;;2.25;;
55589;SDS011;41452;42.780;23.116;2023-04-01T00:20:03;9.45;;;2.42;;
55589;SDS011;41452;42.780;23.116;2023-04-01T00:22:30;6.55;;;2.80;;
55589;SDS011;41452;42.780;23.116;2023-04-01T00:24:55;6.22;;;2.75;;
55589;SDS011;41452;42.780;23.116;2023-04-01T00:27:20;11.23;;;2.83;;
55589;SDS011;41452;42.780;23.116;2023-04-01T00:29:46;7.47;;;2.78;;
55589;SDS011;41452;42.780;23.116;2023-04-01T00:32:12;10.10;;;3.13;;
55589;SDS011;41452;42.780;23.116;2023-04-01T00:34:39;10.90;;;3.40;;
55589;SDS011;41452;42.780;23.116;2023-04-01T00:37:05;9.27;;;3.50;;
55589;SDS011;41452;42.780;23.116;2023-04-01T00:39:32;13.45;;;3.92;;
55589;SDS011;41452;42.780;23.116;2023-04-01T00:41:59;8.82;;;3.35;;
55589;SDS011;41452;42.780;23.116;2023-04-01T00:44:29;4.93;;;2.72;;
55589;SDS011;41452;42.780;23.116;2023-04-01T00:46:57;9.20;;;3.17;;
55589;SDS011;41452;42.780;23.116;2023-04-01T00:49:23;11.07;;;3.75;;
55589;SDS011;41452;42.780;23.116;2023-04-01T00:51:52;9.85;;;3.17;;
55589;SDS011;41452;42.780;23.116;2023-04-01T00:54:20;5.55;;;2.50;;
55589;SDS011;41452;42.780;23.116;2023-04-01T00:56:51;9.55;;;3.08;;
55589;SDS011;41452;42.780;23.116;2023-04-01T00:59:40;9.25;;;2.72;;
55589;SDS011;41452;42.780;23.116;2023-04-01T01:02:10;8.27;;;3.00;;
55589;SDS011;41452;42.780;23.116;2023-04-01T01:04:37;9.57;;;3.40;;
55589;SDS011;41452;42.780;23.116;2023-04-01T01:07:12;6.78;;;3.10;;
55589;SDS011;41452;42.780;23.116;2023-04-01T01:10:18;6.18;;;2.72;;
55589;SDS011;41452;42.780;23.116;2023-04-01T01:12:53;5.78;;;2.50;;
55589;SDS011;41452;42.780;23.116;2023-04-01T01:15:26;8.57;;;2.58;;
55589;SDS011;41452;42.780;23.116;2023-04-01T01:34:31;7.43;;;2.42;;
55589;SDS011;41452;42.780;23.116;2023-04-01T01:37:11;8.73;;;3.78;;
55589;SDS011;41452;42.780;23.116;2023-04-01T01:39:40;9.48;;;3.45;;
55589;SDS011;41452;42.780;23.116;2023-04-01T01:42:08;9.70;;;3.55;;
55589;SDS011;41452;42.780;23.116;2023-04-01T01:44:38;8.73;;;4.30;;
55589;SDS011;41452;42.780;23.116;2023-04-01T01:47:05;12.13;;;4.30;;
55589;SDS011;41452;42.780;23.116;2023-04-01T01:49:31;11.65;;;3.63;;
55589;SDS011;41452;42.780;23.116;2023-04-01T01:51:58;10.05;;;3.67;;
55589;SDS011;41452;42.780;23.116;2023-04-01T01:54:24;7.40;;;3.30;;
55589;SDS011;41452;42.780;23.116;2023-04-01T01:56:51;6.15;;;3.55;;
55589;SDS011;41452;42.780;23.116;2023-04-01T01:59:21;6.15;;;2.72;;
55589;SDS011;41452;42.780;23.116;2023-04-01T02:01:51;6.38;;;2.58;;
55589;SDS011;41452;42.780;23.116;2023-04-01T02:04:19;5.72;;;2.53;;
55589;SDS011;41452;42.780;23.116;2023-04-01T02:06:56;5.53;;;2.10;;
55589;SDS011;41452;42.780;23.116;2023-04-01T02:09:27;6.88;;;2.58;;
55589;SDS011;41452;42.780;23.116;2023-04-01T02:11:57;5.50;;;2.47;;
55589;SDS011;41452;42.780;23.116;2023-04-01T02:14:26;5.10;;;2.28;;
55589;SDS011;41452;42.780;23.116;2023-04-01T02:19:26;11.00;;;2.33;;
55589;SDS011;41452;42.780;23.116;2023-04-01T02:21:57;4.75;;;1.92;;
55589;SDS011;41452;42.780;23.116;2023-04-01T02:24:26;4.70;;;2.00;;
55589;SDS011;41452;42.780;23.116;2023-04-01T02:26:54;8.10;;;2.60;;
55589;SDS011;41452;42.780;23.116;2023-04-01T02:29:20;3.75;;;1.65;;
55589;SDS011;41452;42.780;23.116;2023-04-01T02:31:48;6.75;;;2.55;;
55589;SDS011;41452;42.780;23.116;2023-04-01T02:34:15;8.38;;;2.35;;
55589;SDS011;41452;42.780;23.116;2023-04-01T02:36:40;6.97;;;2.22;;
55589;SDS011;41452;42.780;23.116;2023-04-01T02:39:06;5.10;;;2.10;;
55589;SDS011;41452;42.780;23.116;2023-04-01T02:41:38;5.72;;;2.08;;
55589;SDS011;41452;42.780;23.116;2023-04-01T02:44:05;6.10;;;2.35;;
55589;SDS011;41452;42.780;23.116;2023-04-01T02:46:32;5.32;;;1.67;;
55589;SDS011;41452;42.780;23.116;2023-04-01T02:48:57;5.35;;;2.70;;
55589;SDS011;41452;42.780;23.116;2023-04-01T02:51:22;8.88;;;2.10;;
55589;SDS011;41452;42.780;23.116;2023-04-01T02:53:48;6.68;;;2.20;;
55589;SDS011;41452;42.780;23.116;2023-04-01T02:56:13;7.88;;;2.17;;
55589;SDS011;41452;42.780;23.116;2023-04-01T02:58:39;5.25;;;2.20;;
55589;SDS011;41452;42.780;23.116;2023-04-01T03:01:04;11.20;;;2.22;;
55589;SDS011;41452;42.780;23.116;2023-04-01T03:03:30;9.75;;;2.05;;
55589;SDS011;41452;42.780;23.116;2023-04-01T03:05:55;11.35;;;2.20;;
55589;SDS011;41452;42.780;23.116;2023-04-01T03:08:23;12.95;;;2.42;;
55589;SDS011;41452;42.780;23.116;2023-04-01T03:10:49;10.18;;;2.47;;
55589;SDS011;41452;42.780;23.116;2023-04-01T03:13:14;4.95;;;2.10;;
55589;SDS011;41452;42.780;23.116;2023-04-01T03:15:40;13.20;;;2.60;;
55589;SDS011;41452;42.780;23.116;2023-04-01T03:18:05;5.57;;;2.20;;
55589;SDS011;41452;42.780;23.116;2023-04-01T03:20:30;4.35;;;1.83;;
55589;SDS011;41452;42.780;23.116;2023-04-01T03:22:56;7.68;;;2.28;;
55589;SDS011;41452;42.780;23.116;2023-04-01T03:25:21;6.30;;;2.65;;
55589;SDS011;41452;42.780;23.116;2023-04-01T03:27:46;5.20;;;2.53;;
55589;SDS011;41452;42.780;23.116;2023-04-01T03:30:12;7.60;;;2.05;;
55589;SDS011;41452;42.780;23.116;2023-04-01T03:32:37;4.70;;;1.75;;
55589;SDS011;41452;42.780;23.116;2023-04-01T03:35:03;4.72;;;2.08;;
55589;SDS011;41452;42.780;23.116;2023-04-01T03:37:29;3.58;;;2.15;;
55589;SDS011;41452;42.780;23.116;2023-04-01T03:39:55;5.97;;;1.77;;
55589;SDS011;41452;42.780;23.116;2023-04-01T03:42:20;8.70;;;2.00;;
55589;SDS011;41452;42.780;23.116;2023-04-01T03:44:46;3.70;;;2.15;;
55589;SDS011;41452;42.780;23.116;2023-04-01T03:47:11;6.15;;;1.80;;
55589;SDS011;41452;42.780;23.116;2023-04-01T03:49:36;5.70;;;1.70;;
55589;SDS011;41452;42.780;23.116;2023-04-01T03:52:02;6.20;;;3.08;;
55589;SDS011;41452;42.780;23.116;2023-04-01T03:54:27;6.95;;;2.33;;
55589;SDS011;41452;42.780;23.116;2023-04-01T03:56:53;8.55;;;2.50;;
55589;SDS011;41452;42.780;23.116;2023-04-01T03:59:19;7.95;;;2.30;;
55589;SDS011;41452;42.780;23.116;2023-04-01T04:01:46;5.13;;;2.10;;
55589;SDS011;41452;42.780;23.116;2023-04-01T04:04:12;4.43;;;2.35;;
55589;SDS011;41452;42.780;23.116;2023-04-01T04:06:38;5.60;;;2.42;;
55589;SDS011;41452;42.780;23.116;2023-04-01T04:09:03;4.28;;;1.70;;
55589;SDS011;41452;42.780;23.116;2023-04-01T04:11:29;6.45;;;2.42;;
55589;SDS011;41452;42.780;23.116;2023-04-01T04:13:56;5.25;;;2.40;;
55589;SDS011;41452;42.780;23.116;2023-04-01T04:16:21;13.18;;;4.05;;
55589;SDS011;41452;42.780;23.116;2023-04-01T04:18:46;6.95;;;3.58;;
55589;SDS011;41452;42.780;23.116;2023-04-01T04:21:13;11.00;;;4.47;;
55589;SDS011;41452;42.780;23.116;2023-04-01T04:23:39;5.65;;;3.35;;
55589;SDS011;41452;42.780;23.116;2023-04-01T04:26:08;11.15;;;3.20;;
55589;SDS011;41452;42.780;23.116;2023-04-01T04:28:35;7.50;;;3.45;;
55589;SDS011;41452;42.780;23.116;2023-04-01T04:31:01;5.53;;;2.72;;
55589;SDS011;41452;42.780;23.116;2023-04-01T04:33:27;7.25;;;3.03;;
55589;SDS011;41452;42.780;23.116;2023-04-01T04:35:54;5.13;;;3.03;;
55589;SDS011;41452;42.780;23.116;2023-04-01T04:38:22;9.32;;;2.95;;
55589;SDS011;41452;42.780;23.116;2023-04-01T04:40:47;11.10;;;2.45;;
55589;SDS011;41452;42.780;23.116;2023-04-01T04:43:13;5.38;;;2.75;;
55589;SDS011;41452;42.780;23.116;2023-04-01T04:45:40;5.20;;;2.85;;
55589;SDS011;41452;42.780;23.116;2023-04-01T04:48:13;6.55;;;2.33;;
55589;SDS011;41452;42.780;23.116;2023-04-01T04:50:43;4.70;;;2.75;;
55589;SDS011;41452;42.780;23.116;2023-04-01T04:53:11;8.00;;;2.15;;
55589;SDS011;41452;42.780;23.116;2023-04-01T04:55:37;3.92;;;2.47;;
55589;SDS011;41452;42.780;23.116;2023-04-01T04:58:02;5.88;;;2.10;;
55589;SDS011;41452;42.780;23.116;2023-04-01T05:00:27;4.10;;;2.10;;
55589;SDS011;41452;42.780;23.116;2023-04-01T05:02:53;5.80;;;2.40;;
55589;SDS011;41452;42.780;23.116;2023-04-01T05:05:18;6.35;;;2.80;;
55589;SDS011;41452;42.780;23.116;2023-04-01T05:07:44;7.75;;;2.45;;
55589;SDS011;41452;42.780;23.116;2023-04-01T05:10:09;4.63;;;2.17;;
55589;SDS011;41452;42.780;23.116;2023-04-01T05:12:35;8.10;;;3.10;;
55589;SDS011;41452;42.780;23.116;2023-04-01T05:15:07;6.95;;;3.47;;
55589;SDS011;41452;42.780;23.116;2023-04-01T05:17:33;10.15;;;2.75;;
55589;SDS011;41452;42.780;23.116;2023-04-01T05:19:59;5.82;;;2.78;;
55589;SDS011;41452;42.780;23.116;2023-04-01T05:22:24;7.68;;;2.42;;
55589;SDS011;41452;42.780;23.116;2023-04-01T05:24:50;5.07;;;2.60;;
55589;SDS011;41452;42.780;23.116;2023-04-01T05:27:16;5.13;;;2.90;;
55589;SDS011;41452;42.780;23.116;2023-04-01T05:29:41;6.15;;;2.97;;
55589;SDS011;41452;42.780;23.116;2023-04-01T05:32:06;5.93;;;2.42;;
55589;SDS011;41452;42.780;23.116;2023-04-01T05:34:32;9.32;;;2.75;;
55589;SDS011;41452;42.780;23.116;2023-04-01T05:36:57;6.53;;;3.13;;
55589;SDS011;41452;42.780;23.116;2023-04-01T05:39:23;7.32;;;3.80;;
55589;SDS011;41452;42.780;23.116;2023-04-01T05:41:48;8.85;;;3.20;;
55589;SDS011;41452;42.780;23.116;2023-04-01T05:44:14;7.65;;;3.15;;
55589;SDS011;41452;42.780;23.116;2023-04-01T05:46:39;9.65;;;3.55;;
55589;SDS011;41452;42.780;23.116;2023-04-01T05:49:05;7.38;;;3.13;;
55589;SDS011;41452;42.780;23.116;2023-04-01T05:51:30;10.82;;;2.20;;
55589;SDS011;41452;42.780;23.116;2023-04-01T05:53:56;6.25;;;3.03;;
55589;SDS011;41452;42.780;23.116;2023-04-01T05:56:21;5.75;;;2.35;;
55589;SDS011;41452;42.780;23.116;2023-04-01T05:58:47;8.13;;;2.33;;
55589;SDS011;41452;42.780;23.116;2023-04-01T06:01:16;7.72;;;2.63;;
55589;SDS011;41452;42.780;23.116;2023-04-01T06:03:41;6.90;;;2.17;;
55589;SDS011;41452;42.780;23.116;2023-04-01T06:06:14;7.22;;;2.80;;
55589;SDS011;41452;42.780;23.116;2023-04-01T06:08:41;5.60;;;2.55;;
55589;SDS011;41452;42.780;23.116;2023-04-01T06:21:47;13.80;;;4.63;;
55589;SDS011;41452;42.780;23.116;2023-04-01T06:24:20;8.13;;;4.65;;
55589;SDS011;41452;42.780;23.116;2023-04-01T06:26:56;17.38;;;7.78;;
55589;SDS011;41452;42.780;23.116;2023-04-01T06:35:50;15.30;;;5.70;;
55589;SDS011;41452;42.780;23.116;2023-04-01T06:41:08;11.48;;;4.85;;
55589;SDS011;41452;42.780;23.116;2023-04-01T06:44:09;11.23;;;5.57;;
55589;SDS011;41452;42.780;23.116;2023-04-01T06:46:59;9.20;;;5.93;;
55589;SDS011;41452;42.780;23.116;2023-04-01T06:52:58;14.95;;;6.20;;
55589;SDS011;41452;42.780;23.116;2023-04-01T06:55:46;14.32;;;7.38;;
55589;SDS011;41452;42.780;23.116;2023-04-01T06:58:23;18.23;;;7.05;;
55589;SDS011;41452;42.780;23.116;2023-04-01T07:00:52;15.55;;;6.68;;
55589;SDS011;41452;42.780;23.116;2023-04-01T07:03:23;18.88;;;6.95;;
55589;SDS011;41452;42.780;23.116;2023-04-01T07:05:54;13.70;;;6.75;;
55589;SDS011;41452;42.780;23.116;2023-04-01T07:08:24;12.43;;;6.07;;
55589;SDS011;41452;42.780;23.116;2023-04-01T07:13:46;12.68;;;7.13;;
55589;SDS011;41452;42.780;23.116;2023-04-01T07:24:13;20.10;;;10.13;;
55589;SDS011;41452;42.780;23.116;2023-04-01T07:26:46;20.55;;;8.23;;
55589;SDS011;41452;42.780;23.116;2023-04-01T07:29:14;18.20;;;8.50;;
55589;SDS011;41452;42.780;23.116;2023-04-01T07:53:32;14.32;;;6.40;;
55589;SDS011;41452;42.780;23.116;2023-04-01T07:56:15;13.80;;;6.50;;
55589;SDS011;41452;42.780;23.116;2023-04-01T07:59:01;13.55;;;6.47;;
55589;SDS011;41452;42.780;23.116;2023-04-01T08:04:15;14.40;;;7.55;;
55589;SDS011;41452;42.780;23.116;2023-04-01T08:06:44;18.90;;;7.73;;
55589;SDS011;41452;42.780;23.116;2023-04-01T08:17:16;17.60;;;8.10;;
55589;SDS011;41452;42.780;23.116;2023-04-01T08:22:27;19.92;;;14.32;;
55589;SDS011;41452;42.780;23.116;2023-04-01T08:24:59;23.83;;;13.63;;
55589;SDS011;41452;42.780;23.116;2023-04-01T08:29:56;10.48;;;5.18;;
55589;SDS011;41452;42.780;23.116;2023-04-01T08:32:39;10.07;;;5.82;;
55589;SDS011;41452;42.780;23.116;2023-04-01T08:35:19;14.38;;;5.57;;
55589;SDS011;41452;42.780;23.116;2023-04-01T08:37:51;12.17;;;5.27;;
55589;SDS011;41452;42.780;23.116;2023-04-01T08:48:23;12.55;;;6.95;;
55589;SDS011;41452;42.780;23.116;2023-04-01T08:56:56;10.15;;;4.45;;
55589;SDS011;41452;42.780;23.116;2023-04-01T09:15:53;10.02;;;3.53;;
55589;SDS011;41452;42.780;23.116;2023-04-01T09:35:34;9.07;;;3.70;;
55589;SDS011;41452;42.780;23.116;2023-04-01T09:40:54;16.10;;;3.13;;
55589;SDS011;41452;42.780;23.116;2023-04-01T09:57:09;7.68;;;3.67;;
55589;SDS011;41452;42.780;23.116;2023-04-01T10:30:23;15.98;;;4.15;;
55589;SDS011;41452;42.780;23.116;2023-04-01T10:33:12;10.80;;;2.83;;
55589;SDS011;41452;42.780;23.116;2023-04-01T11:06:48;8.15;;;2.10;;
55589;SDS011;41452;42.780;23.116;2023-04-01T11:09:35;10.18;;;2.58;;
55589;SDS011;41452;42.780;23.116;2023-04-01T11:23:18;5.03;;;2.15;;
55589;SDS011;41452;42.780;23.116;2023-04-01T11:26:08;2.85;;;1.38;;
55589;SDS011;41452;42.780;23.116;2023-04-01T11:28:45;5.63;;;1.58;;
55589;SDS011;41452;42.780;23.116;2023-04-01T11:45:35;8.25;;;3.33;;
55589;SDS011;41452;42.780;23.116;2023-04-01T11:50:54;5.22;;;2.78;;
55589;SDS011;41452;42.780;23.116;2023-04-01T11:53:52;11.18;;;3.22;;
55589;SDS011;41452;42.780;23.116;2023-04-01T12:04:35;4.88;;;2.65;;
55589;SDS011;41452;42.780;23.116;2023-04-01T12:10:26;10.50;;;2.90;;
55589;SDS011;41452;42.780;23.116;2023-04-01T12:15:35;8.68;;;2.92;;
55589;SDS011;41452;42.780;23.116;2023-04-01T12:18:17;8.52;;;3.00;;
55589;SDS011;41452;42.780;23.116;2023-04-01T12:40:56;8.20;;;3.17;;
55589;SDS011;41452;42.780;23.116;2023-04-01T13:28:14;3.75;;;1.92;;
55589;SDS011;41452;42.780;23.116;2023-04-01T13:30:55;2.67;;;1.30;;
55589;SDS011;41452;42.780;23.116;2023-04-01T13:41:23;2.38;;;1.50;;
55589;SDS011;41452;42.780;23.116;2023-04-01T13:43:58;4.10;;;1.17;;
55589;SDS011;41452;42.780;23.116;2023-04-01T13:54:59;3.55;;;1.17;;
55589;SDS011;41452;42.780;23.116;2023-04-01T14:27:41;5.25;;;3.35;;
55589;SDS011;41452;42.780;23.116;2023-04-01T14:30:39;2.63;;;1.10;;
55589;SDS011;41452;42.780;23.116;2023-04-01T14:39:07;2.10;;;1.20;;
55589;SDS011;41452;42.780;23.116;2023-04-01T14:41:40;2.30;;;1.13;;
55589;SDS011;41452;42.780;23.116;2023-04-01T14:55:01;2.55;;;1.55;;
55589;SDS011;41452;42.780;23.116;2023-04-01T14:57:52;3.83;;;1.35;;
55589;SDS011;41452;42.780;23.116;2023-04-01T15:05:49;9.77;;;5.00;;
55589;SDS011;41452;42.780;23.116;2023-04-01T15:08:31;3.22;;;1.33;;
55589;SDS011;41452;42.780;23.116;2023-04-01T15:16:51;2.70;;;1.30;;
55589;SDS011;41452;42.780;23.116;2023-04-01T15:30:32;3.05;;;1.33;;
55589;SDS011;41452;42.780;23.116;2023-04-01T15:36:07;1.75;;;0.98;;
55589;SDS011;41452;42.780;23.116;2023-04-01T16:10:52;10.32;;;4.30;;
55589;SDS011;41452;42.780;23.116;2023-04-01T16:16:28;19.10;;;7.25;;
55589;SDS011;41452;42.780;23.116;2023-04-01T16:26:53;16.65;;;6.55;;
55589;SDS011;41452;42.780;23.116;2023-04-01T16:32:23;4.70;;;2.95;;
55589;SDS011;41452;42.780;23.116;2023-04-01T16:51:33;4.03;;;2.15;;
55589;SDS011;41452;42.780;23.116;2023-04-01T16:56:39;6.90;;;3.35;;
55589;SDS011;41452;42.780;23.116;2023-04-01T16:59:17;4.95;;;3.13;;
55589;SDS011;41452;42.780;23.116;2023-04-01T17:01:51;10.93;;;5.75;;
55589;SDS011;41452;42.780;23.116;2023-04-01T17:09:59;5.65;;;2.67;;
55589;SDS011;41452;42.780;23.116;2023-04-01T17:15:16;3.55;;;2.50;;
55589;SDS011;41452;42.780;23.116;2023-04-01T17:28:44;19.45;;;7.07;;
55589;SDS011;41452;42.780;23.116;2023-04-01T17:31:25;11.88;;;6.10;;
55589;SDS011;41452;42.780;23.116;2023-04-01T17:39:24;5.43;;;2.75;;
55589;SDS011;41452;42.780;23.116;2023-04-01T17:53:19;9.40;;;4.72;;
55589;SDS011;41452;42.780;23.116;2023-04-01T17:55:51;6.32;;;3.50;;
55589;SDS011;41452;42.780;23.116;2023-04-01T18:01:13;10.50;;;4.75;;
55589;SDS011;41452;42.780;23.116;2023-04-01T18:26:37;6.18;;;3.78;;
55589;SDS011;41452;42.780;23.116;2023-04-01T18:31:51;4.68;;;2.97;;
55589;SDS011;41452;42.780;23.116;2023-04-01T18:37:22;2.95;;;2.08;;
55589;SDS011;41452;42.780;23.116;2023-04-01T18:39:53;3.08;;;1.95;;
55589;SDS011;41452;42.780;23.116;2023-04-01T18:42:34;3.25;;;2.20;;
55589;SDS011;41452;42.780;23.116;2023-04-01T18:45:23;3.03;;;2.08;;
55589;SDS011;41452;42.780;23.116;2023-04-01T18:48:11;2.95;;;2.10;;
55589;SDS011;41452;42.780;23.116;2023-04-01T18:50:52;4.65;;;2.65;;
55589;SDS011;41452;42.780;23.116;2023-04-01T18:53:27;4.20;;;2.42;;
55589;SDS011;41452;42.780;23.116;2023-04-01T18:56:01;8.40;;;3.20;;
55589;SDS011;41452;42.780;23.116;2023-04-01T18:58:52;9.32;;;3.65;;
55589;SDS011;41452;42.780;23.116;2023-04-01T19:06:56;5.18;;;3.22;;
55589;SDS011;41452;42.780;23.116;2023-04-01T19:09:25;6.68;;;3.00;;
55589;SDS011;41452;42.780;23.116;2023-04-01T19:31:11;5.88;;;2.83;;
55589;SDS011;41452;42.780;23.116;2023-04-01T19:34:11;4.38;;;2.63;;
55589;SDS011;41452;42.780;23.116;2023-04-01T19:42:55;8.00;;;2.38;;
55589;SDS011;41452;42.780;23.116;2023-04-01T19:45:26;7.03;;;2.30;;
55589;SDS011;41452;42.780;23.116;2023-04-01T19:56:17;4.03;;;1.60;;
55589;SDS011;41452;42.780;23.116;2023-04-01T20:01:44;4.70;;;2.35;;
55589;SDS011;41452;42.780;23.116;2023-04-01T20:04:15;4.15;;;1.60;;
55589;SDS011;41452;42.780;23.116;2023-04-01T20:06:57;3.70;;;1.88;;
55589;SDS011;41452;42.780;23.116;2023-04-01T20:15:00;3.92;;;2.00;;
55589;SDS011;41452;42.780;23.116;2023-04-01T20:17:41;6.65;;;2.20;;
55589;SDS011;41452;42.780;23.116;2023-04-01T20:33:42;4.85;;;2.10;;
55589;SDS011;41452;42.780;23.116;2023-04-01T20:36:54;3.97;;;2.38;;
55589;SDS011;41452;42.780;23.116;2023-04-01T20:50:24;2.33;;;1.73;;
55589;SDS011;41452;42.780;23.116;2023-04-01T20:56:27;2.80;;;1.73;;
55589;SDS011;41452;42.780;23.116;2023-04-01T21:21:14;4.72;;;2.10;;
55589;SDS011;41452;42.780;23.116;2023-04-01T21:26:34;5.70;;;2.60;;
55589;SDS011;41452;42.780;23.116;2023-04-01T21:31:51;3.60;;;1.77;;
55589;SDS011;41452;42.780;23.116;2023-04-01T21:35:03;4.70;;;1.80;;
55589;SDS011;41452;42.780;23.116;2023-04-01T21:37:36;4.18;;;1.75;;
55589;SDS011;41452;42.780;23.116;2023-04-01T21:40:15;2.33;;;1.50;;
55589;SDS011;41452;42.780;23.116;2023-04-01T22:18:23;2.30;;;1.48;;
55589;SDS011;41452;42.780;23.116;2023-04-01T22:26:39;2.75;;;1.35;;
55589;SDS011;41452;42.780;23.116;2023-04-01T22:34:49;2.33;;;1.55;;
55589;SDS011;41452;42.780;23.116;2023-04-01T22:43:01;3.63;;;1.80;;
55589;SDS011;41452;42.780;23.116;2023-04-01T22:48:29;3.17;;;2.17;;
55589;SDS011;41452;42.780;23.116;2023-04-01T22:53:51;1.98;;;1.20;;
55589;SDS011;41452;42.780;23.116;2023-04-01T22:56:37;3.80;;;1.55;;
55589;SDS011;41452;42.780;23.116;2023-04-01T23:01:35;2.13;;;1.20;;
55589;SDS011;41452;42.780;23.116;2023-04-01T23:04:09;2.53;;;1.50;;
55589;SDS011;41452;42.780;23.116;2023-04-01T23:06:42;2.67;;;1.73;;
55589;SDS011;41452;42.780;23.116;2023-04-01T23:09:14;2.65;;;1.60;;
55589;SDS011;41452;42.780;23.116;2023-04-01T23:19:47;2.20;;;1.40;;
55589;SDS011;41452;42.780;23.116;2023-04-01T23:22:25;2.30;;;1.50;;
55589;SDS011;41452;42.780;23.116;2023-04-01T23:36:41;1.30;;;1.10;;
55589;SDS011;41452;42.780;23.116;2023-04-01T23:39:41;2.10;;;1.27;;
55589;SDS011;41452;42.780;23.116;2023-04-01T23:42:20;2.13;;;1.20;;
55589;SDS011;41452;42.780;23.116;2023-04-01T23:44:49;1.60;;;1.20;;
55589;SDS011;41452;42.780;23.116;2023-04-01T23:47:18;1.90;;;1.17;;
55589;SDS011;41452;42.780;23.116;2023-04-01T23:50:11;1.30;;;1.15;;
55589;SDS011;41452;42.780;23.116;2023-04-01T23:52:40;1.48;;;1.10;;
55589;SDS011;41452;42.780;23.116;2023-04-01T23:57:35;1.80;;;1.13;;
